createdAt,value
2018-11-10T00:07:13.453Z,8.73
2018-11-10T00:17:34.901Z,8.50
2018-11-10T00:27:57.064Z,8.85
2018-11-10T00:38:19.392Z,8.69
2018-11-10T00:48:40.879Z,8.47
2018-11-10T00:59:01.690Z,8.64
2018-11-10T01:09:24.092Z,8.77
2018-11-10T01:19:45.199Z,8.49
2018-11-10T01:30:07.654Z,8.66
2018-11-10T01:40:29.055Z,8.77
2018-11-10T01:50:50.060Z,8.56
2018-11-10T02:01:11.872Z,8.44
2018-11-10T02:11:32.947Z,8.63
2018-11-10T02:21:54.043Z,8.66
2018-11-10T02:32:17.773Z,8.45
2018-11-10T02:42:39.318Z,8.31
2018-11-10T02:53:00.929Z,8.40
2018-11-10T03:03:22.272Z,8.47
2018-11-10T03:13:43.258Z,8.20
2018-11-10T03:24:04.129Z,8.30
2018-11-10T03:34:25.266Z,8.30
2018-11-10T03:44:46.519Z,8.43
2018-11-10T03:55:08.354Z,8.50
2018-11-10T04:05:29.321Z,8.46
2018-11-10T04:15:50.465Z,8.05
2018-11-10T04:26:11.716Z,8.17
2018-11-10T04:36:32.563Z,8.04
2018-11-10T04:46:54.220Z,8.17
2018-11-10T04:57:16.199Z,8.27
2018-11-10T05:07:38.650Z,8.36
2018-11-10T05:18:01.315Z,8.40
2018-11-10T05:28:22.656Z,8.04
2018-11-10T05:38:44.429Z,8.36
2018-11-10T05:49:06.284Z,8.26
2018-11-10T05:59:28.644Z,8.13
2018-11-10T06:09:53.602Z,8.15
2018-11-10T06:20:16.846Z,8.53
2018-11-10T06:30:39.400Z,8.47
2018-11-10T06:41:05.345Z,8.29
2018-11-10T06:51:26.881Z,8.43
2018-11-10T07:01:52.105Z,8.42
2018-11-10T07:12:16.579Z,8.59
2018-11-10T07:22:38.266Z,8.64
2018-11-10T07:33:02.175Z,8.45
2018-11-10T07:43:24.146Z,8.76
2018-11-10T07:53:46.604Z,8.80
2018-11-10T08:04:08.250Z,8.93
2018-11-10T08:14:29.603Z,9.00
2018-11-10T08:24:51.121Z,9.21
2018-11-10T08:35:13.011Z,9.09
2018-11-10T08:45:16.344Z,9.23
2018-11-10T08:55:19.233Z,9.75
2018-11-10T09:05:22.476Z,9.75
2018-11-10T09:15:25.458Z,9.90
2018-11-10T09:25:28.389Z,10.10
2018-11-10T09:35:31.320Z,10.35
2018-11-10T09:45:34.218Z,10.29
2018-11-10T09:55:37.543Z,10.38
2018-11-10T10:05:40.442Z,10.62
2018-11-10T10:15:43.349Z,11.00
2018-11-10T10:25:46.429Z,10.58
2018-11-10T10:35:49.305Z,10.57
2018-11-10T10:45:52.145Z,10.66
2018-11-10T10:55:55.052Z,10.73
2018-11-10T11:06:02.248Z,10.40
2018-11-10T11:16:05.915Z,10.38
2018-11-10T11:26:08.793Z,10.50
2018-11-10T11:36:11.802Z,10.32
2018-11-10T11:46:14.801Z,10.54
2018-11-10T11:56:17.662Z,10.60
2018-11-10T12:06:20.577Z,10.43
2018-11-10T12:16:27.196Z,10.45
2018-11-10T12:26:26.384Z,10.16
2018-11-10T12:37:57.523Z,10.50
2018-11-10T12:48:00.411Z,10.30
2018-11-10T12:58:03.378Z,10.24
2018-11-10T13:08:06.373Z,10.41
2018-11-10T13:18:09.182Z,10.54
2018-11-10T13:28:12.089Z,10.56
2018-11-10T13:38:15.120Z,10.44
2018-11-10T13:48:17.923Z,10.55
2018-11-10T13:58:20.836Z,10.45
2018-11-10T14:08:24.227Z,10.39
2018-11-10T14:18:27.348Z,10.42
2018-11-10T14:28:30.703Z,10.42
2018-11-10T14:38:33.630Z,10.21
2018-11-10T14:48:36.480Z,10.35
2018-11-10T14:58:39.488Z,10.20
2018-11-10T15:08:42.252Z,9.91
2018-11-10T15:19:20.830Z,9.83
2018-11-10T15:29:20.694Z,9.42
2018-11-10T15:39:20.667Z,9.56
2018-11-10T15:49:20.538Z,9.37
2018-11-10T15:59:23.075Z,9.48
2018-11-10T16:09:24.235Z,9.20
2018-11-10T16:19:24.522Z,9.19
2018-11-10T16:29:24.398Z,9.34
2018-11-10T16:39:24.288Z,8.92
2018-11-10T16:49:24.139Z,9.06
2018-11-10T16:59:24.016Z,8.86
2018-11-10T17:09:23.883Z,9.02
2018-11-10T17:19:23.815Z,9.08
2018-11-10T17:29:23.703Z,8.76
2018-11-10T17:39:23.738Z,8.86
2018-11-10T17:49:23.475Z,9.13
2018-11-10T17:59:23.352Z,8.85
2018-11-10T18:09:23.222Z,8.84
2018-11-10T18:19:23.103Z,9.08
2018-11-10T18:29:23.003Z,8.83
2018-11-10T18:39:23.009Z,8.94
2018-11-10T18:49:22.882Z,8.95
2018-11-10T18:59:22.751Z,8.93
2018-11-10T19:09:23.044Z,9.10
2018-11-10T19:19:22.902Z,9.09
2018-11-10T19:29:22.795Z,9.01
2018-11-10T19:39:22.657Z,9.06
2018-11-10T19:49:22.513Z,8.91
2018-11-10T19:59:22.372Z,9.05
2018-11-10T20:09:22.279Z,8.82
2018-11-10T20:19:22.550Z,8.95
2018-11-10T20:29:22.361Z,8.95
2018-11-10T20:39:22.278Z,8.94
2018-11-10T20:49:22.221Z,9.06
2018-11-10T20:59:22.108Z,8.90
2018-11-10T21:09:23.311Z,9.25
2018-11-10T21:19:24.508Z,9.31
2018-11-10T21:29:25.551Z,9.27
2018-11-10T21:39:44.554Z,9.08
2018-11-10T21:50:04.849Z,9.00
2018-11-10T22:00:24.049Z,9.25
2018-11-10T22:10:44.075Z,9.30
2018-11-10T22:21:01.891Z,9.07
2018-11-10T22:31:20.023Z,9.26
2018-11-10T22:41:38.090Z,9.04
2018-11-10T22:51:56.205Z,9.12
2018-11-10T23:02:14.757Z,9.13
2018-11-10T23:12:33.240Z,9.28
2018-11-10T23:22:51.317Z,9.24
2018-11-10T23:33:09.325Z,9.30
2018-11-10T23:43:27.375Z,9.41
2018-11-10T23:53:45.633Z,9.19
